Huvudsida
METAR-TAF:

METAR-TAF

Flygplatser :

Rom-Ciampino flygplats

Rom Ciampino, Italien

latitud: 41-47N, longitud: 012-35E, höjd: 129 m

Aktuellt väderrapport

Denna rapport gjordes för 22 minuter sedan, klockan 10:50 UTC
Vind 6 kt från väst/sydväst, varierande mellan syd/sydväst och väst/nordväst
Temperatur 28°C
Fuktighet 51%
Tryck 1015 hPa
Sikt 10 km eller mer
Få moln på en höjd av 3000 ft

METAR: LIRA 161050Z 25006KT 200V290 9999 FEW030 28/17 Q1015

Tid: 13:12 (11:12 UTC)

Väderprognos

Denna rapport gjordes för 6 timmar och 12 minuter sedan, klockan 05:00 UTC
Prognos gäller från 16 kl. 06 UTC till 17 kl. 06 UTC
Vind 5 kt varierande vindriktning
Sikt 10 km eller mer
Inga moln under 1 500 m eller inga cumulonimbus
Blir
från 16 kl. 08 UTC till 16 kl. 10 UTC
Vind 10 kt från väst/sydväst
Blir
från 16 kl. 16 UTC till 16 kl. 18 UTC
Vind 5 kt varierande vindriktning

TAF: LIRA 160500Z 1606/1706 VRB05KT CAVOK BECMG 1608/1610 24010KT BECMG 1616/1618 VRB05KT

Aktuella väderrapporter och prognoser från 4000 flygplatser (METAR- och TAF-rapporter).

De tillgängliga stationerna syns som gula och röda prickar på kartan.

För musen över prickarna för att se namnen på stationerna.

Klicka sedan för att få väderrapporter och prognoser.

För att ändra kartan: Klicka på de gröna knapparna med ett svart kors på för att zooma in; den gröna knappen med ett streck på för att zooma ut; eller på de gröna pilarna för angränsande kartor.


METAR-TAF: